Colombia, Brazil
Current Conditions -  °F | °C
As of 2:00 PM on Tuesday 21 Oct 2014 (Local Time) from SBUR Reporting Station
Broken Clouds Broken Clouds  
Wind Chill: 90°   Ceiling: 4500
Heat Index: 90°   Visibility: 6mi
Dew Point: 54°   Wind: 8mph
Humidity: 29%   Direction: 130°SE
Pressure: 30"   Gusts: NA
Location:  20.18°S, 48.69°W
Report Text: SBUR 211600Z 13007KT 9999 BKN045 32/12 Q1016
Loading
Personal Weather Stations






























Interactive Weather Map
Tropical Storm Tracking
New forecast layout! Learn more

10-Day Weather Forecast

Advertisements
Track Severe Weather on mobile